createdAt,value
2023-05-15T00:01:24.108Z,51.84
2023-05-15T00:03:51.454Z,51.91
2023-05-15T00:06:18.299Z,51.98
2023-05-15T00:08:44.913Z,51.83
2023-05-15T00:11:12.034Z,51.79
2023-05-15T00:13:38.590Z,51.91
2023-05-15T00:16:07.938Z,52.02
2023-05-15T00:18:34.892Z,51.94
2023-05-15T00:21:01.478Z,52.12
2023-05-15T00:23:28.097Z,51.93
2023-05-15T00:25:54.771Z,52.04
2023-05-15T00:28:21.272Z,51.98
2023-05-15T00:30:48.342Z,52.27
2023-05-15T00:33:15.012Z,52.01
2023-05-15T00:35:42.902Z,52.06
2023-05-15T00:38:09.373Z,52.00
2023-05-15T00:40:39.019Z,52.26
2023-05-15T00:43:05.933Z,52.24
2023-05-15T00:45:34.165Z,52.20
2023-05-15T00:48:01.290Z,52.33
2023-05-15T00:50:29.691Z,52.08
2023-05-15T00:52:56.696Z,52.24
2023-05-15T00:55:25.788Z,52.32
2023-05-15T00:57:53.718Z,52.25
2023-05-15T01:00:20.454Z,52.45
2023-05-15T01:02:47.288Z,52.46
2023-05-15T01:05:14.017Z,52.37
2023-05-15T01:07:48.877Z,52.41
2023-05-15T01:10:17.376Z,52.33
2023-05-15T01:12:46.511Z,52.49
2023-05-15T01:15:14.115Z,52.63
2023-05-15T01:17:40.709Z,52.98
2023-05-15T01:20:10.030Z,52.87
2023-05-15T01:22:51.508Z,52.87
2023-05-15T01:25:36.561Z,52.88
2023-05-15T01:28:08.843Z,52.96
2023-05-15T01:30:40.456Z,52.78
2023-05-15T01:33:25.172Z,52.89
2023-05-15T01:36:18.850Z,52.89
2023-05-15T01:38:53.124Z,53.08
2023-05-15T01:41:31.101Z,53.44
2023-05-15T01:44:08.047Z,53.71
2023-05-15T01:46:39.123Z,53.37
2023-05-15T01:49:10.438Z,53.46
2023-05-15T01:51:38.867Z,54.07
2023-05-15T01:54:08.426Z,53.69
2023-05-15T01:56:37.291Z,53.72
2023-05-15T01:59:05.103Z,53.95
2023-05-15T02:01:36.811Z,53.75
2023-05-15T02:04:03.670Z,53.90
2023-05-15T02:06:32.745Z,53.78
2023-05-15T02:09:02.598Z,54.00
2023-05-15T02:11:30.419Z,54.25
2023-05-15T02:13:58.366Z,54.38
2023-05-15T02:16:25.117Z,54.55
2023-05-15T02:18:51.972Z,54.89
2023-05-15T02:21:19.757Z,54.91
2023-05-15T02:23:46.370Z,54.76
2023-05-15T02:26:23.621Z,54.72
2023-05-15T02:29:06.068Z,54.84
2023-05-15T02:31:54.825Z,54.89
2023-05-15T02:34:38.951Z,54.63
2023-05-15T02:37:10.551Z,54.73
2023-05-15T02:39:38.767Z,55.03
2023-05-15T02:42:06.640Z,55.34
2023-05-15T02:44:35.615Z,55.38
2023-05-15T02:47:05.378Z,55.34
2023-05-15T02:49:33.406Z,55.21
2023-05-15T02:52:00.744Z,55.53
2023-05-15T02:54:27.292Z,55.34
2023-05-15T02:56:53.902Z,55.54
2023-05-15T02:59:20.904Z,55.74
2023-05-15T03:01:47.630Z,55.92
2023-05-15T03:04:14.977Z,55.91
2023-05-15T03:06:41.816Z,56.15
2023-05-15T03:09:08.319Z,56.02
2023-05-15T03:11:34.839Z,56.07
2023-05-15T03:14:01.535Z,56.24
2023-05-15T03:16:28.299Z,56.53
2023-05-15T03:18:54.845Z,56.18
2023-05-15T03:21:21.389Z,56.35
2023-05-15T03:23:48.049Z,56.98
2023-05-15T03:26:14.545Z,56.66
2023-05-15T03:28:42.262Z,56.55
2023-05-15T03:31:09.292Z,56.58
2023-05-15T03:33:35.851Z,56.97
2023-05-15T03:36:02.578Z,57.29
2023-05-15T03:38:29.988Z,57.48
2023-05-15T03:40:56.497Z,57.50
2023-05-15T03:43:23.511Z,57.49
2023-05-15T03:45:50.243Z,57.44
2023-05-15T03:48:16.981Z,57.46
2023-05-15T03:50:45.018Z,57.69
2023-05-15T03:53:11.772Z,57.60
2023-05-15T03:55:38.301Z,57.73
2023-05-15T03:58:05.886Z,58.45
2023-05-15T04:00:33.667Z,58.36
2023-05-15T04:03:01.054Z,58.81
2023-05-15T04:05:27.867Z,60.38
2023-05-15T04:07:54.659Z,60.08
2023-05-15T04:10:21.212Z,60.24
2023-05-15T04:12:47.754Z,60.58
2023-05-15T04:15:20.971Z,61.10
2023-05-15T04:17:50.818Z,60.78
2023-05-15T04:20:19.965Z,61.54
2023-05-15T04:22:47.463Z,62.90
2023-05-15T04:25:15.522Z,61.69
2023-05-15T04:27:43.089Z,61.71
2023-05-15T04:30:11.231Z,61.49
2023-05-15T04:32:39.074Z,61.67
2023-05-15T04:35:10.133Z,61.62
2023-05-15T04:37:38.827Z,62.05
2023-05-15T04:40:07.632Z,62.63
2023-05-15T04:42:35.885Z,62.65
2023-05-15T04:45:03.439Z,62.59
2023-05-15T04:47:30.087Z,63.21
2023-05-15T04:49:56.749Z,63.53
2023-05-15T04:52:25.980Z,64.58
2023-05-15T04:54:54.893Z,65.42
2023-05-15T04:57:21.755Z,64.70
2023-05-15T04:59:48.248Z,65.70
2023-05-15T05:02:14.842Z,65.64
2023-05-15T05:04:45.299Z,65.81
2023-05-15T05:07:12.116Z,66.54
2023-05-15T05:09:39.524Z,66.80
2023-05-15T05:12:07.169Z,66.52
2023-05-15T05:14:34.002Z,67.53
2023-05-15T05:17:00.693Z,67.98
2023-05-15T05:19:29.863Z,68.25
2023-05-15T05:21:57.822Z,68.54
2023-05-15T05:24:24.576Z,68.56
2023-05-15T05:26:51.088Z,68.88
2023-05-15T05:29:17.564Z,68.92
2023-05-15T05:31:46.548Z,69.55
2023-05-15T05:34:13.415Z,70.21
2023-05-15T05:36:40.126Z,70.28
2023-05-15T05:39:06.796Z,69.89
2023-05-15T05:41:34.126Z,70.74
2023-05-15T05:44:00.776Z,70.83
2023-05-15T05:46:27.704Z,70.25
2023-05-15T05:48:54.332Z,70.35
2023-05-15T05:51:21.099Z,71.19
2023-05-15T05:53:47.851Z,71.51
2023-05-15T05:56:14.521Z,71.23
2023-05-15T05:58:41.059Z,71.56
2023-05-15T06:01:08.438Z,71.54
2023-05-15T06:03:35.178Z,71.05
2023-05-15T06:06:02.358Z,71.82
2023-05-15T06:08:29.403Z,71.51
2023-05-15T06:10:56.000Z,71.65
2023-05-15T06:13:22.921Z,71.54
2023-05-15T06:15:51.104Z,71.62
2023-05-15T06:18:17.589Z,71.20
2023-05-15T06:20:44.171Z,71.45
2023-05-15T06:23:10.717Z,71.20
2023-05-15T06:25:37.303Z,72.46
2023-05-15T06:28:04.097Z,71.96
2023-05-15T06:30:30.843Z,71.87
2023-05-15T06:32:57.358Z,72.19
2023-05-15T06:35:24.118Z,73.17
2023-05-15T06:37:51.713Z,74.52
2023-05-15T06:40:18.411Z,71.93
2023-05-15T06:42:45.134Z,71.94
2023-05-15T06:45:12.427Z,72.63
2023-05-15T06:47:38.976Z,73.45
2023-05-15T06:50:05.977Z,73.64
2023-05-15T06:52:32.829Z,73.77
2023-05-15T06:54:59.632Z,73.49
2023-05-15T06:57:26.302Z,73.93
2023-05-15T06:59:53.095Z,75.14
2023-05-15T07:02:19.651Z,74.09
2023-05-15T07:04:46.266Z,76.73
2023-05-15T07:07:12.960Z,75.40
2023-05-15T07:09:39.749Z,75.49
2023-05-15T07:12:06.586Z,74.84
2023-05-15T07:14:33.647Z,75.60
2023-05-15T07:17:00.186Z,75.68
2023-05-15T07:19:26.923Z,76.97
2023-05-15T07:21:53.625Z,76.01
2023-05-15T07:24:20.088Z,76.06
2023-05-15T07:26:57.490Z,76.04
2023-05-15T07:29:25.428Z,76.38
2023-05-15T07:31:52.362Z,76.55
2023-05-15T07:34:18.946Z,76.58
2023-05-15T07:36:45.644Z,77.22
2023-05-15T07:39:12.638Z,77.68
2023-05-15T07:41:39.120Z,78.37
2023-05-15T07:44:06.030Z,77.47
2023-05-15T07:46:33.695Z,78.08
2023-05-15T07:49:00.280Z,78.48
2023-05-15T07:51:26.942Z,78.98
2023-05-15T07:53:53.681Z,78.61
2023-05-15T07:56:20.956Z,78.10
2023-05-15T07:58:48.039Z,78.12
2023-05-15T08:01:14.591Z,77.59
2023-05-15T08:03:41.271Z,78.61
2023-05-15T08:06:08.060Z,78.38
2023-05-15T08:08:34.665Z,80.00
2023-05-15T08:11:01.395Z,80.24
2023-05-15T08:13:28.229Z,80.01
2023-05-15T08:15:54.734Z,80.75
2023-05-15T08:18:21.628Z,80.02
2023-05-15T08:20:49.080Z,79.53
2023-05-15T08:23:15.578Z,81.31
2023-05-15T08:25:42.285Z,80.55
2023-05-15T08:28:10.248Z,79.94
2023-05-15T08:30:36.962Z,80.11
2023-05-15T08:33:03.925Z,80.30
2023-05-15T08:35:30.580Z,80.42
2023-05-15T08:37:57.853Z,80.31
2023-05-15T08:40:38.220Z,81.28
2023-05-15T08:43:15.749Z,80.46
2023-05-15T08:45:42.780Z,80.89
2023-05-15T08:48:13.646Z,81.16
2023-05-15T08:50:42.946Z,80.55
2023-05-15T08:53:12.272Z,80.60
2023-05-15T08:55:39.617Z,82.35
2023-05-15T08:58:08.894Z,80.97
2023-05-15T09:00:35.640Z,81.67
2023-05-15T09:03:02.527Z,82.11
2023-05-15T09:05:29.544Z,81.60
2023-05-15T09:07:58.466Z,80.59
2023-05-15T09:10:25.093Z,81.05
2023-05-15T09:12:52.904Z,81.39
2023-05-15T09:15:22.704Z,81.94
2023-05-15T09:17:49.841Z,81.79
2023-05-15T09:20:36.981Z,82.45
2023-05-15T09:23:05.279Z,82.17
2023-05-15T09:25:36.852Z,81.97
2023-05-15T09:28:04.299Z,82.20
2023-05-15T09:30:31.352Z,82.45
2023-05-15T09:33:02.990Z,81.34
2023-05-15T09:35:40.324Z,81.60
2023-05-15T09:38:12.072Z,81.81
2023-05-15T09:40:42.259Z,82.74
2023-05-15T09:43:11.906Z,81.97
2023-05-15T09:45:38.614Z,81.77
2023-05-15T09:48:07.040Z,83.36
2023-05-15T09:50:36.390Z,82.75
2023-05-15T09:53:03.781Z,82.59
2023-05-15T09:55:32.776Z,82.93
2023-05-15T09:58:11.047Z,82.54
2023-05-15T10:00:48.423Z,82.12
2023-05-15T10:03:20.151Z,82.56
2023-05-15T10:05:46.851Z,84.00
2023-05-15T10:08:15.067Z,83.66
2023-05-15T10:10:42.967Z,83.20
2023-05-15T10:13:11.409Z,83.04
2023-05-15T10:15:39.153Z,84.53
2023-05-15T10:18:06.548Z,84.19
2023-05-15T10:20:34.963Z,83.47
2023-05-15T10:23:05.267Z,83.45
2023-05-15T10:25:42.451Z,83.61
2023-05-15T10:28:10.299Z,84.23
2023-05-15T10:30:37.735Z,84.62
2023-05-15T10:33:05.909Z,84.18
2023-05-15T10:35:33.803Z,84.63
2023-05-15T10:38:04.986Z,85.29
2023-05-15T10:40:33.338Z,84.64
2023-05-15T10:43:01.177Z,85.33
2023-05-15T10:45:29.631Z,85.33
2023-05-15T10:47:58.394Z,86.55
2023-05-15T10:50:26.755Z,86.24
2023-05-15T10:52:54.715Z,85.98
2023-05-15T10:55:22.194Z,85.96
2023-05-15T10:57:49.369Z,85.17
2023-05-15T11:00:22.016Z,85.93
2023-05-15T11:02:50.267Z,86.55
2023-05-15T11:05:16.927Z,86.77
2023-05-15T11:07:43.524Z,86.48
2023-05-15T11:10:28.540Z,86.85
2023-05-15T11:13:00.815Z,87.26
2023-05-15T11:15:41.477Z,87.11
2023-05-15T11:18:08.406Z,86.68
2023-05-15T11:21:02.072Z,87.22
2023-05-15T11:23:36.985Z,86.90
2023-05-15T11:26:05.170Z,88.00
2023-05-15T11:28:42.674Z,86.90
2023-05-15T11:31:09.372Z,87.28
2023-05-15T11:33:39.070Z,86.73
2023-05-15T11:36:06.536Z,86.59
2023-05-15T11:38:39.244Z,86.62
2023-05-15T11:41:21.323Z,86.29
2023-05-15T11:43:48.377Z,86.92
2023-05-15T11:46:15.823Z,87.05
2023-05-15T11:48:49.677Z,87.26
2023-05-15T11:51:27.061Z,87.63
2023-05-15T11:53:55.311Z,87.23
2023-05-15T11:56:24.121Z,87.81
2023-05-15T11:58:59.088Z,87.51
2023-05-15T12:01:25.781Z,87.89
2023-05-15T12:03:53.807Z,87.79
2023-05-15T12:06:20.763Z,88.12
2023-05-15T12:08:52.739Z,88.28
2023-05-15T12:11:23.777Z,87.82
2023-05-15T12:13:52.520Z,88.01
2023-05-15T12:16:25.519Z,87.56
2023-05-15T12:18:52.729Z,88.38
2023-05-15T12:21:19.279Z,88.01
2023-05-15T12:24:03.504Z,88.23
2023-05-15T12:26:35.238Z,88.33
2023-05-15T12:29:02.520Z,89.34
2023-05-15T12:31:29.376Z,88.75
2023-05-15T12:33:56.558Z,88.70
2023-05-15T12:36:23.494Z,88.68
2023-05-15T12:38:50.158Z,88.29
2023-05-15T12:41:16.770Z,88.81
2023-05-15T12:43:43.460Z,89.20
2023-05-15T12:46:12.852Z,89.04
2023-05-15T12:48:40.272Z,88.80
2023-05-15T12:51:07.911Z,89.06
2023-05-15T12:53:34.753Z,88.63
2023-05-15T12:56:01.972Z,88.55
2023-05-15T12:58:29.293Z,89.10
2023-05-15T13:00:56.336Z,88.93
2023-05-15T13:03:24.605Z,88.93
2023-05-15T13:05:51.619Z,89.08
2023-05-15T13:08:18.976Z,88.85
2023-05-15T13:10:55.510Z,88.80
2023-05-15T13:13:22.149Z,88.74
2023-05-15T13:15:49.852Z,88.68
2023-05-15T13:18:18.018Z,88.73
2023-05-15T13:20:49.503Z,88.65
2023-05-15T13:23:18.617Z,88.92
2023-05-15T13:25:47.135Z,88.92
2023-05-15T13:28:13.994Z,88.55
2023-05-15T13:30:41.285Z,88.64
2023-05-15T13:33:11.968Z,88.78
2023-05-15T13:35:40.521Z,88.74
2023-05-15T13:38:09.435Z,88.83
2023-05-15T13:40:38.307Z,88.81
2023-05-15T13:43:07.725Z,89.04
2023-05-15T13:45:34.573Z,89.40
2023-05-15T13:48:01.293Z,89.51
2023-05-15T13:50:28.148Z,89.42
2023-05-15T13:52:55.321Z,89.34
2023-05-15T13:55:23.103Z,89.42
2023-05-15T13:57:51.652Z,89.36
2023-05-15T14:00:19.587Z,89.42
2023-05-15T14:02:46.153Z,89.67
2023-05-15T14:05:16.630Z,89.34
2023-05-15T14:07:43.446Z,89.44
2023-05-15T14:10:10.679Z,89.71
2023-05-15T14:12:38.037Z,89.47
2023-05-15T14:15:05.487Z,89.20
2023-05-15T14:17:32.281Z,89.22
2023-05-15T14:19:58.911Z,89.29
2023-05-15T14:22:25.452Z,88.96
2023-05-15T14:24:53.083Z,88.92
2023-05-15T14:27:19.725Z,88.98
2023-05-15T14:29:47.883Z,88.79
2023-05-15T14:32:15.321Z,89.09
2023-05-15T14:34:41.948Z,88.87
2023-05-15T14:37:08.424Z,88.52
2023-05-15T14:39:35.365Z,88.69
2023-05-15T14:42:01.920Z,89.06
2023-05-15T14:44:28.540Z,88.59
2023-05-15T14:47:12.184Z,88.44
2023-05-15T14:49:39.257Z,88.51
2023-05-15T14:52:08.094Z,88.32
2023-05-15T14:54:35.395Z,88.26
2023-05-15T14:57:05.819Z,88.35
2023-05-15T14:59:33.408Z,88.50
2023-05-15T15:02:00.274Z,88.60
2023-05-15T15:04:28.557Z,89.03
2023-05-15T15:06:57.331Z,88.92
2023-05-15T15:09:28.966Z,88.58
2023-05-15T15:11:55.852Z,88.33
2023-05-15T15:14:22.498Z,88.09
2023-05-15T15:16:49.096Z,87.69
2023-05-15T15:19:18.211Z,87.29
2023-05-15T15:21:46.438Z,87.20
2023-05-15T15:24:13.292Z,87.09
2023-05-15T15:26:40.731Z,87.10
2023-05-15T15:29:07.239Z,86.96
2023-05-15T15:31:33.980Z,86.72
2023-05-15T15:34:01.413Z,86.53
2023-05-15T15:36:30.959Z,86.13
2023-05-15T15:38:57.720Z,85.55
2023-05-15T15:41:24.337Z,85.18
2023-05-15T15:43:50.939Z,85.12
2023-05-15T15:46:17.649Z,85.29
2023-05-15T15:48:44.516Z,85.25
2023-05-15T15:51:11.199Z,85.07
2023-05-15T15:53:38.269Z,85.16
2023-05-15T15:56:06.217Z,85.26
2023-05-15T15:58:32.813Z,85.23
2023-05-15T16:00:59.610Z,85.24
2023-05-15T16:03:26.473Z,85.45
2023-05-15T16:05:53.050Z,86.23
2023-05-15T16:08:19.732Z,85.81
2023-05-15T16:10:46.448Z,85.59
2023-05-15T16:13:13.328Z,85.42
2023-05-15T16:15:40.211Z,85.62
2023-05-15T16:18:07.104Z,85.24
2023-05-15T16:20:35.266Z,85.10
2023-05-15T16:23:02.137Z,85.16
2023-05-15T16:25:28.740Z,85.26
2023-05-15T16:27:55.482Z,85.01
2023-05-15T16:30:23.432Z,84.84
2023-05-15T16:32:53.015Z,84.89
2023-05-15T16:35:21.569Z,84.96
2023-05-15T16:37:48.173Z,84.83
2023-05-15T16:40:14.971Z,84.86
2023-05-15T16:42:42.487Z,85.20
2023-05-15T16:45:09.533Z,85.05
2023-05-15T16:47:38.567Z,85.04
2023-05-15T16:50:06.413Z,85.04
2023-05-15T16:52:32.985Z,85.17
2023-05-15T16:54:59.649Z,85.23
2023-05-15T16:57:26.396Z,85.51
2023-05-15T16:59:56.215Z,85.28
2023-05-15T17:02:22.988Z,85.39
2023-05-15T17:04:50.269Z,85.22
2023-05-15T17:07:18.100Z,85.40
2023-05-15T17:09:44.843Z,85.55
2023-05-15T17:12:11.534Z,85.60
2023-05-15T17:14:38.058Z,85.55
2023-05-15T17:17:04.953Z,85.80
2023-05-15T17:19:33.931Z,86.03
2023-05-15T17:22:00.591Z,85.95
2023-05-15T17:24:38.498Z,86.28
2023-05-15T17:27:15.180Z,86.12
2023-05-15T17:29:42.497Z,86.27
2023-05-15T17:32:09.768Z,86.52
2023-05-15T17:34:36.978Z,86.36
2023-05-15T17:37:03.828Z,86.51
2023-05-15T17:39:30.624Z,86.30
2023-05-15T17:41:57.295Z,86.39
2023-05-15T17:44:29.245Z,87.00
2023-05-15T17:46:56.930Z,87.09
2023-05-15T17:49:27.748Z,86.89
2023-05-15T17:51:54.490Z,87.12
2023-05-15T17:54:21.113Z,87.63
2023-05-15T17:56:48.110Z,87.03
2023-05-15T17:59:15.580Z,87.43
2023-05-15T18:01:42.340Z,87.79
2023-05-15T18:04:09.350Z,87.60
2023-05-15T18:06:37.585Z,88.32
2023-05-15T18:09:04.497Z,88.23
2023-05-15T18:11:31.071Z,88.41
2023-05-15T18:13:57.867Z,87.98
2023-05-15T18:16:24.710Z,87.83
2023-05-15T18:18:51.459Z,88.26
2023-05-15T18:21:20.912Z,88.37
2023-05-15T18:23:47.500Z,88.85
2023-05-15T18:26:14.011Z,88.85
2023-05-15T18:28:40.760Z,88.83
2023-05-15T18:31:07.605Z,89.00
2023-05-15T18:33:34.242Z,88.78
2023-05-15T18:36:00.904Z,88.83
2023-05-15T18:38:28.251Z,88.71
2023-05-15T18:40:55.255Z,89.01
2023-05-15T18:43:22.108Z,89.09
2023-05-15T18:45:51.373Z,88.60
2023-05-15T18:48:17.960Z,88.48
2023-05-15T18:50:44.814Z,88.32
2023-05-15T18:53:11.417Z,88.37
2023-05-15T18:55:38.903Z,88.24
2023-05-15T18:58:05.911Z,88.30
2023-05-15T19:03:02.152Z,88.24
2023-05-15T19:05:33.180Z,88.20
2023-05-15T19:07:59.959Z,88.26
2023-05-15T19:10:28.604Z,88.15
2023-05-15T19:12:55.854Z,88.03
2023-05-15T19:15:22.755Z,88.05
2023-05-15T19:17:49.365Z,87.96
2023-05-15T19:20:16.469Z,87.93
2023-05-15T19:22:43.486Z,87.85
2023-05-15T19:25:10.373Z,87.93
2023-05-15T19:27:37.318Z,87.96
2023-05-15T19:30:06.575Z,87.84
2023-05-15T19:32:33.898Z,87.76
2023-05-15T19:35:00.729Z,87.80
2023-05-15T19:37:27.322Z,87.59
2023-05-15T19:39:54.100Z,87.51
2023-05-15T19:42:20.767Z,87.79
2023-05-15T19:44:47.321Z,87.91
2023-05-15T19:47:14.209Z,87.95
2023-05-15T19:49:40.786Z,88.08
2023-05-15T19:52:07.333Z,87.99
2023-05-15T19:54:33.917Z,88.10
2023-05-15T19:57:02.209Z,88.54
2023-05-15T19:59:29.177Z,88.27
2023-05-15T20:01:55.837Z,88.38
2023-05-15T20:04:22.721Z,88.47
2023-05-15T20:06:49.373Z,88.03
2023-05-15T20:09:15.982Z,88.48
2023-05-15T20:11:42.832Z,87.94
2023-05-15T20:14:09.455Z,88.57
2023-05-15T20:16:36.524Z,88.79
2023-05-15T20:19:03.712Z,88.78
2023-05-15T20:21:31.696Z,88.95
2023-05-15T20:23:58.603Z,89.38
2023-05-15T20:26:25.753Z,89.36
2023-05-15T20:28:52.373Z,88.92
2023-05-15T20:31:18.941Z,88.89
2023-05-15T20:33:45.795Z,89.25
2023-05-15T20:36:14.771Z,89.31
2023-05-15T20:38:44.392Z,89.30
2023-05-15T20:41:11.131Z,89.10
2023-05-15T20:43:38.542Z,89.12
2023-05-15T20:46:08.366Z,88.84
2023-05-15T20:48:35.838Z,88.58
2023-05-15T20:51:02.798Z,88.53
2023-05-15T20:53:29.452Z,88.59
2023-05-15T20:55:56.160Z,88.78
2023-05-15T20:58:22.818Z,88.84
2023-05-15T21:00:49.470Z,88.72
2023-05-15T21:03:16.597Z,88.72
2023-05-15T21:05:44.094Z,88.96
2023-05-15T21:08:10.718Z,88.91
2023-05-15T21:10:37.563Z,89.44
2023-05-15T21:13:04.546Z,89.47
2023-05-15T21:15:31.650Z,89.43
2023-05-15T21:17:58.604Z,89.72
2023-05-15T21:20:27.915Z,89.82
2023-05-15T21:22:54.617Z,89.93
2023-05-15T21:25:21.284Z,89.89
2023-05-15T21:27:47.847Z,89.57
2023-05-15T21:30:14.670Z,89.57
2023-05-15T21:32:41.406Z,89.85
2023-05-15T21:35:09.291Z,89.67
2023-05-15T21:37:35.805Z,89.90
2023-05-15T21:40:02.779Z,89.99
2023-05-15T21:42:31.044Z,89.83
2023-05-15T21:44:57.642Z,89.73
2023-05-15T21:47:24.408Z,89.83
2023-05-15T21:49:51.131Z,89.76
2023-05-15T21:52:17.590Z,89.69
2023-05-15T21:54:44.968Z,89.85
2023-05-15T21:57:12.514Z,89.66
2023-05-15T21:59:39.232Z,89.77
2023-05-15T22:02:06.013Z,89.92
2023-05-15T22:04:32.703Z,89.95
2023-05-15T22:06:59.171Z,90.42
2023-05-15T22:09:25.789Z,90.62
2023-05-15T22:11:52.345Z,90.47
2023-05-15T22:14:18.849Z,90.08
2023-05-15T22:16:45.660Z,90.12
2023-05-15T22:19:25.075Z,90.13
2023-05-15T22:22:00.677Z,89.56
2023-05-15T22:24:27.179Z,89.68
2023-05-15T22:26:54.791Z,89.74
2023-05-15T22:29:21.419Z,89.83
2023-05-15T22:31:48.024Z,89.69
2023-05-15T22:34:14.625Z,89.87
2023-05-15T22:36:41.420Z,89.74
2023-05-15T22:39:08.404Z,89.73
2023-05-15T22:41:35.019Z,89.78
2023-05-15T22:44:02.558Z,89.60
2023-05-15T22:46:29.262Z,89.58
2023-05-15T22:48:58.456Z,89.40
2023-05-15T22:51:26.315Z,89.77
2023-05-15T22:53:55.210Z,89.68
2023-05-15T22:56:21.851Z,89.82
2023-05-15T22:58:48.588Z,89.89
2023-05-15T23:01:15.263Z,89.97
2023-05-15T23:03:41.816Z,89.69
2023-05-15T23:06:08.465Z,89.89
2023-05-15T23:08:35.048Z,90.05
2023-05-15T23:11:01.957Z,89.92
2023-05-15T23:13:28.589Z,90.05
2023-05-15T23:15:55.188Z,90.35
2023-05-15T23:18:21.826Z,90.00
2023-05-15T23:20:48.738Z,89.97
2023-05-15T23:23:15.273Z,90.13
2023-05-15T23:25:41.751Z,90.04
2023-05-15T23:28:08.398Z,90.25
2023-05-15T23:30:35.045Z,90.36
2023-05-15T23:33:01.604Z,90.46
2023-05-15T23:35:28.199Z,90.34
2023-05-15T23:37:55.020Z,90.38
2023-05-15T23:40:21.631Z,90.48
2023-05-15T23:42:48.304Z,90.79
2023-05-15T23:45:15.106Z,90.81
2023-05-15T23:47:41.658Z,90.62
2023-05-15T23:50:08.382Z,90.89
2023-05-15T23:52:35.047Z,90.64
2023-05-15T23:55:01.486Z,90.79
2023-05-15T23:57:28.092Z,90.88
2023-05-15T23:59:54.702Z,90.78
